In Rescue
 
Open Full Screen Window  High Contrast Mode
Wind Gusting 00 knots
10
May 20, 2019 3:27 PM EDT
Weather Information
Wind Direction
  280 °
Wind Speed
  10 kt (12 mph)
Wind Gust
  00 kt (0 mph)
Altimeter
30.02 in
Visibility
10 SM
Temperature
10° C
50° F
Dewpoint
05° C
41° F
Humidity
71%
1hr Rain Fall
00.00 in.
24hr Rain Fall
00.09 in.
Sky Condition
Overcast @ 2,500 ft
MVFR

METAR KFPK 201927Z AUTO 28010KT 10SM OVC025 10/05 A3002 RMK AO2 T00950053

FAA Disclaimer: The data displayed is for advisory purposes only and is not to be used for flight planning or operations.